sensor_id;sensor_type;location;lat;lon;timestamp;P1;durP1;ratioP1;P2;durP2;ratioP2
70543;SDS011;58097;48.364;-1.224;2023-01-19T00:02:22;18.38;;;6.38;;
70543;SDS011;58097;48.364;-1.224;2023-01-19T00:04:48;13.25;;;4.35;;
70543;SDS011;58097;48.364;-1.224;2023-01-19T00:07:14;12.68;;;3.50;;
70543;SDS011;58097;48.364;-1.224;2023-01-19T00:09:40;10.90;;;4.40;;
70543;SDS011;58097;48.364;-1.224;2023-01-19T00:12:05;18.05;;;4.90;;
70543;SDS011;58097;48.364;-1.224;2023-01-19T00:14:31;5.47;;;3.13;;
70543;SDS011;58097;48.364;-1.224;2023-01-19T00:16:57;10.85;;;4.55;;
70543;SDS011;58097;48.364;-1.224;2023-01-19T00:19:22;7.97;;;2.95;;
70543;SDS011;58097;48.364;-1.224;2023-01-19T00:21:48;4.63;;;2.38;;
70543;SDS011;58097;48.364;-1.224;2023-01-19T00:24:13;7.72;;;2.40;;
70543;SDS011;58097;48.364;-1.224;2023-01-19T00:26:39;11.10;;;3.38;;
70543;SDS011;58097;48.364;-1.224;2023-01-19T00:29:07;12.82;;;2.97;;
70543;SDS011;58097;48.364;-1.224;2023-01-19T00:31:34;10.43;;;2.53;;
70543;SDS011;58097;48.364;-1.224;2023-01-19T00:34:00;11.73;;;2.75;;
70543;SDS011;58097;48.364;-1.224;2023-01-19T00:36:26;4.40;;;2.33;;
70543;SDS011;58097;48.364;-1.224;2023-01-19T00:38:51;10.93;;;2.60;;
70543;SDS011;58097;48.364;-1.224;2023-01-19T00:41:16;5.30;;;2.17;;
70543;SDS011;58097;48.364;-1.224;2023-01-19T00:43:42;7.28;;;2.35;;
70543;SDS011;58097;48.364;-1.224;2023-01-19T00:46:08;5.28;;;2.30;;
70543;SDS011;58097;48.364;-1.224;2023-01-19T00:48:33;8.75;;;2.35;;
70543;SDS011;58097;48.364;-1.224;2023-01-19T00:50:59;9.88;;;3.20;;
70543;SDS011;58097;48.364;-1.224;2023-01-19T00:53:24;9.30;;;2.50;;
70543;SDS011;58097;48.364;-1.224;2023-01-19T00:55:50;4.00;;;2.28;;
70543;SDS011;58097;48.364;-1.224;2023-01-19T00:58:15;7.13;;;2.67;;
70543;SDS011;58097;48.364;-1.224;2023-01-19T01:00:41;4.32;;;2.53;;
70543;SDS011;58097;48.364;-1.224;2023-01-19T01:03:06;12.15;;;2.30;;
70543;SDS011;58097;48.364;-1.224;2023-01-19T01:05:31;6.88;;;2.90;;
70543;SDS011;58097;48.364;-1.224;2023-01-19T01:07:57;12.30;;;3.00;;
70543;SDS011;58097;48.364;-1.224;2023-01-19T01:10:23;7.70;;;3.10;;
70543;SDS011;58097;48.364;-1.224;2023-01-19T01:12:51;8.93;;;4.88;;
70543;SDS011;58097;48.364;-1.224;2023-01-19T01:15:17;7.78;;;2.65;;
70543;SDS011;58097;48.364;-1.224;2023-01-19T01:17:43;5.47;;;2.25;;
70543;SDS011;58097;48.364;-1.224;2023-01-19T01:22:41;7.68;;;3.55;;
70543;SDS011;58097;48.364;-1.224;2023-01-19T01:25:09;7.43;;;3.20;;
70543;SDS011;58097;48.364;-1.224;2023-01-19T01:27:36;6.00;;;2.40;;
70543;SDS011;58097;48.364;-1.224;2023-01-19T01:30:01;14.57;;;4.70;;
70543;SDS011;58097;48.364;-1.224;2023-01-19T01:32:26;11.25;;;3.42;;
70543;SDS011;58097;48.364;-1.224;2023-01-19T01:34:52;8.35;;;3.22;;
70543;SDS011;58097;48.364;-1.224;2023-01-19T01:37:17;7.18;;;2.42;;
70543;SDS011;58097;48.364;-1.224;2023-01-19T01:39:43;10.90;;;4.50;;
70543;SDS011;58097;48.364;-1.224;2023-01-19T01:42:13;10.00;;;3.45;;
70543;SDS011;58097;48.364;-1.224;2023-01-19T01:47:16;14.60;;;3.90;;
70543;SDS011;58097;48.364;-1.224;2023-01-19T01:50:13;9.82;;;2.65;;
70543;SDS011;58097;48.364;-1.224;2023-01-19T01:55:13;8.82;;;2.63;;
70543;SDS011;58097;48.364;-1.224;2023-01-19T01:57:40;8.90;;;2.55;;
70543;SDS011;58097;48.364;-1.224;2023-01-19T02:00:15;5.55;;;2.22;;
70543;SDS011;58097;48.364;-1.224;2023-01-19T02:02:41;6.78;;;2.47;;
70543;SDS011;58097;48.364;-1.224;2023-01-19T02:08:02;6.75;;;2.38;;
70543;SDS011;58097;48.364;-1.224;2023-01-19T02:10:51;13.13;;;2.92;;
70543;SDS011;58097;48.364;-1.224;2023-01-19T02:13:36;15.20;;;3.38;;
70543;SDS011;58097;48.364;-1.224;2023-01-19T02:16:07;4.10;;;2.40;;
70543;SDS011;58097;48.364;-1.224;2023-01-19T02:18:33;6.40;;;2.55;;
70543;SDS011;58097;48.364;-1.224;2023-01-19T02:21:03;9.40;;;2.63;;
70543;SDS011;58097;48.364;-1.224;2023-01-19T02:23:38;6.75;;;2.95;;
70543;SDS011;58097;48.364;-1.224;2023-01-19T02:26:11;7.00;;;2.63;;
70543;SDS011;58097;48.364;-1.224;2023-01-19T02:28:40;5.43;;;2.47;;
70543;SDS011;58097;48.364;-1.224;2023-01-19T02:31:10;2.28;;;1.60;;
70543;SDS011;58097;48.364;-1.224;2023-01-19T02:33:36;7.60;;;2.15;;
70543;SDS011;58097;48.364;-1.224;2023-01-19T02:36:01;5.18;;;1.60;;
70543;SDS011;58097;48.364;-1.224;2023-01-19T02:38:28;4.07;;;1.85;;
70543;SDS011;58097;48.364;-1.224;2023-01-19T02:40:55;5.38;;;1.52;;
70543;SDS011;58097;48.364;-1.224;2023-01-19T02:43:22;8.85;;;2.13;;
70543;SDS011;58097;48.364;-1.224;2023-01-19T02:45:49;7.47;;;1.98;;
70543;SDS011;58097;48.364;-1.224;2023-01-19T02:48:14;3.15;;;1.25;;
70543;SDS011;58097;48.364;-1.224;2023-01-19T02:50:43;3.25;;;0.90;;
70543;SDS011;58097;48.364;-1.224;2023-01-19T03:01:36;5.47;;;1.40;;
70543;SDS011;58097;48.364;-1.224;2023-01-19T03:10:16;6.30;;;1.17;;
70543;SDS011;58097;48.364;-1.224;2023-01-19T03:12:55;5.53;;;1.33;;
70543;SDS011;58097;48.364;-1.224;2023-01-19T03:18:01;1.05;;;0.95;;
70543;SDS011;58097;48.364;-1.224;2023-01-19T03:20:30;1.67;;;1.17;;
70543;SDS011;58097;48.364;-1.224;2023-01-19T03:23:03;2.15;;;0.93;;
70543;SDS011;58097;48.364;-1.224;2023-01-19T03:25:32;3.08;;;1.00;;
70543;SDS011;58097;48.364;-1.224;2023-01-19T03:28:01;1.52;;;0.93;;
70543;SDS011;58097;48.364;-1.224;2023-01-19T03:30:29;1.15;;;0.90;;
70543;SDS011;58097;48.364;-1.224;2023-01-19T03:33:01;1.83;;;1.00;;
70543;SDS011;58097;48.364;-1.224;2023-01-19T03:35:34;1.00;;;0.95;;
70543;SDS011;58097;48.364;-1.224;2023-01-19T03:38:04;2.13;;;1.00;;
70543;SDS011;58097;48.364;-1.224;2023-01-19T03:40:33;1.92;;;0.93;;
70543;SDS011;58097;48.364;-1.224;2023-01-19T03:43:00;2.03;;;1.10;;
70543;SDS011;58097;48.364;-1.224;2023-01-19T03:45:27;3.20;;;1.30;;
70543;SDS011;58097;48.364;-1.224;2023-01-19T03:47:54;0.70;;;0.70;;
70543;SDS011;58097;48.364;-1.224;2023-01-19T03:50:25;0.73;;;0.60;;
70543;SDS011;58097;48.364;-1.224;2023-01-19T03:52:59;4.47;;;1.10;;
70543;SDS011;58097;48.364;-1.224;2023-01-19T03:55:26;1.10;;;1.05;;
70543;SDS011;58097;48.364;-1.224;2023-01-19T03:57:51;2.63;;;0.95;;
70543;SDS011;58097;48.364;-1.224;2023-01-19T04:00:18;3.10;;;1.40;;
70543;SDS011;58097;48.364;-1.224;2023-01-19T04:02:43;3.65;;;1.00;;
70543;SDS011;58097;48.364;-1.224;2023-01-19T04:05:08;3.35;;;0.90;;
70543;SDS011;58097;48.364;-1.224;2023-01-19T04:07:34;1.58;;;0.73;;
70543;SDS011;58097;48.364;-1.224;2023-01-19T04:09:59;2.08;;;0.90;;
70543;SDS011;58097;48.364;-1.224;2023-01-19T04:12:24;1.30;;;0.75;;
70543;SDS011;58097;48.364;-1.224;2023-01-19T04:14:50;2.10;;;1.00;;
70543;SDS011;58097;48.364;-1.224;2023-01-19T04:17:15;3.63;;;0.93;;
70543;SDS011;58097;48.364;-1.224;2023-01-19T04:19:40;2.67;;;1.00;;
70543;SDS011;58097;48.364;-1.224;2023-01-19T04:22:07;3.67;;;0.93;;
70543;SDS011;58097;48.364;-1.224;2023-01-19T04:24:32;2.97;;;0.93;;
70543;SDS011;58097;48.364;-1.224;2023-01-19T04:26:57;1.33;;;0.90;;
70543;SDS011;58097;48.364;-1.224;2023-01-19T04:29:23;4.72;;;1.10;;
70543;SDS011;58097;48.364;-1.224;2023-01-19T04:31:48;1.52;;;0.68;;
70543;SDS011;58097;48.364;-1.224;2023-01-19T04:34:13;0.80;;;0.80;;
70543;SDS011;58097;48.364;-1.224;2023-01-19T04:36:39;6.97;;;1.08;;
70543;SDS011;58097;48.364;-1.224;2023-01-19T04:39:04;1.77;;;0.65;;
70543;SDS011;58097;48.364;-1.224;2023-01-19T04:41:29;3.92;;;1.40;;
70543;SDS011;58097;48.364;-1.224;2023-01-19T04:43:55;3.47;;;0.93;;
70543;SDS011;58097;48.364;-1.224;2023-01-19T04:46:20;4.47;;;0.88;;
70543;SDS011;58097;48.364;-1.224;2023-01-19T04:48:46;2.22;;;0.82;;
70543;SDS011;58097;48.364;-1.224;2023-01-19T04:51:11;1.38;;;0.88;;
70543;SDS011;58097;48.364;-1.224;2023-01-19T04:53:36;6.72;;;1.20;;
70543;SDS011;58097;48.364;-1.224;2023-01-19T04:56:02;1.05;;;0.82;;
70543;SDS011;58097;48.364;-1.224;2023-01-19T04:58:27;0.80;;;0.80;;
70543;SDS011;58097;48.364;-1.224;2023-01-19T05:00:52;3.00;;;0.90;;
70543;SDS011;58097;48.364;-1.224;2023-01-19T05:03:18;1.23;;;1.05;;
70543;SDS011;58097;48.364;-1.224;2023-01-19T05:05:44;1.38;;;0.75;;
70543;SDS011;58097;48.364;-1.224;2023-01-19T05:08:10;1.75;;;0.77;;
70543;SDS011;58097;48.364;-1.224;2023-01-19T05:10:35;0.80;;;0.80;;
70543;SDS011;58097;48.364;-1.224;2023-01-19T05:13:01;2.33;;;1.13;;
70543;SDS011;58097;48.364;-1.224;2023-01-19T05:15:26;1.92;;;0.80;;
70543;SDS011;58097;48.364;-1.224;2023-01-19T05:17:51;0.60;;;0.60;;
70543;SDS011;58097;48.364;-1.224;2023-01-19T05:20:17;2.70;;;0.80;;
70543;SDS011;58097;48.364;-1.224;2023-01-19T05:22:47;4.50;;;0.82;;
70543;SDS011;58097;48.364;-1.224;2023-01-19T05:25:13;1.05;;;0.90;;
70543;SDS011;58097;48.364;-1.224;2023-01-19T05:27:38;1.13;;;0.90;;
70543;SDS011;58097;48.364;-1.224;2023-01-19T05:30:05;2.92;;;1.00;;
70543;SDS011;58097;48.364;-1.224;2023-01-19T05:32:30;4.65;;;1.00;;
70543;SDS011;58097;48.364;-1.224;2023-01-19T05:34:56;1.08;;;1.05;;
70543;SDS011;58097;48.364;-1.224;2023-01-19T05:37:22;3.30;;;1.13;;
70543;SDS011;58097;48.364;-1.224;2023-01-19T05:39:47;4.68;;;1.23;;
70543;SDS011;58097;48.364;-1.224;2023-01-19T05:42:12;2.05;;;1.00;;
70543;SDS011;58097;48.364;-1.224;2023-01-19T05:44:38;2.55;;;1.10;;
70543;SDS011;58097;48.364;-1.224;2023-01-19T05:47:03;2.80;;;1.40;;
70543;SDS011;58097;48.364;-1.224;2023-01-19T05:49:29;2.35;;;1.10;;
70543;SDS011;58097;48.364;-1.224;2023-01-19T05:51:55;5.68;;;0.98;;
70543;SDS011;58097;48.364;-1.224;2023-01-19T05:54:20;1.20;;;1.10;;
70543;SDS011;58097;48.364;-1.224;2023-01-19T05:56:45;4.65;;;0.90;;
70543;SDS011;58097;48.364;-1.224;2023-01-19T05:59:11;0.95;;;0.93;;
70543;SDS011;58097;48.364;-1.224;2023-01-19T06:01:36;2.58;;;0.95;;
70543;SDS011;58097;48.364;-1.224;2023-01-19T06:04:02;5.43;;;1.73;;
70543;SDS011;58097;48.364;-1.224;2023-01-19T06:06:28;9.68;;;1.42;;
70543;SDS011;58097;48.364;-1.224;2023-01-19T06:09:30;3.67;;;1.13;;
70543;SDS011;58097;48.364;-1.224;2023-01-19T06:12:02;2.25;;;1.40;;
70543;SDS011;58097;48.364;-1.224;2023-01-19T06:14:28;5.65;;;2.10;;
70543;SDS011;58097;48.364;-1.224;2023-01-19T06:16:53;5.25;;;1.83;;
70543;SDS011;58097;48.364;-1.224;2023-01-19T06:19:18;4.72;;;1.20;;
70543;SDS011;58097;48.364;-1.224;2023-01-19T06:21:46;5.53;;;1.40;;
70543;SDS011;58097;48.364;-1.224;2023-01-19T06:24:14;5.82;;;1.33;;
70543;SDS011;58097;48.364;-1.224;2023-01-19T06:26:39;2.53;;;1.20;;
70543;SDS011;58097;48.364;-1.224;2023-01-19T06:29:07;3.05;;;1.40;;
70543;SDS011;58097;48.364;-1.224;2023-01-19T06:31:33;5.07;;;1.75;;
70543;SDS011;58097;48.364;-1.224;2023-01-19T06:33:58;5.45;;;1.63;;
70543;SDS011;58097;48.364;-1.224;2023-01-19T06:36:24;5.18;;;1.10;;
70543;SDS011;58097;48.364;-1.224;2023-01-19T06:38:49;3.90;;;1.60;;
70543;SDS011;58097;48.364;-1.224;2023-01-19T06:41:14;6.20;;;1.50;;
70543;SDS011;58097;48.364;-1.224;2023-01-19T06:43:40;2.03;;;1.45;;
70543;SDS011;58097;48.364;-1.224;2023-01-19T06:46:05;3.83;;;1.67;;
70543;SDS011;58097;48.364;-1.224;2023-01-19T06:48:31;3.35;;;1.50;;
70543;SDS011;58097;48.364;-1.224;2023-01-19T06:50:56;8.73;;;1.80;;
70543;SDS011;58097;48.364;-1.224;2023-01-19T06:53:21;1.30;;;1.20;;
70543;SDS011;58097;48.364;-1.224;2023-01-19T06:55:47;2.47;;;1.33;;
70543;SDS011;58097;48.364;-1.224;2023-01-19T06:58:12;5.13;;;1.75;;
70543;SDS011;58097;48.364;-1.224;2023-01-19T07:00:38;4.85;;;1.50;;
70543;SDS011;58097;48.364;-1.224;2023-01-19T07:03:06;1.10;;;1.00;;
70543;SDS011;58097;48.364;-1.224;2023-01-19T07:05:35;3.95;;;1.30;;
70543;SDS011;58097;48.364;-1.224;2023-01-19T07:08:01;6.53;;;1.50;;
70543;SDS011;58097;48.364;-1.224;2023-01-19T07:10:27;1.08;;;0.98;;
70543;SDS011;58097;48.364;-1.224;2023-01-19T07:12:53;8.40;;;1.30;;
70543;SDS011;58097;48.364;-1.224;2023-01-19T07:15:20;2.70;;;1.45;;
70543;SDS011;58097;48.364;-1.224;2023-01-19T07:17:46;1.25;;;0.95;;
70543;SDS011;58097;48.364;-1.224;2023-01-19T07:20:12;6.32;;;1.58;;
70543;SDS011;58097;48.364;-1.224;2023-01-19T07:22:38;2.15;;;1.25;;
70543;SDS011;58097;48.364;-1.224;2023-01-19T07:25:10;11.60;;;2.03;;
70543;SDS011;58097;48.364;-1.224;2023-01-19T07:27:37;9.20;;;2.85;;
70543;SDS011;58097;48.364;-1.224;2023-01-19T07:30:02;9.55;;;3.65;;
70543;SDS011;58097;48.364;-1.224;2023-01-19T07:32:28;7.25;;;3.20;;
70543;SDS011;58097;48.364;-1.224;2023-01-19T07:34:54;8.75;;;3.00;;
70543;SDS011;58097;48.364;-1.224;2023-01-19T07:37:19;6.15;;;2.72;;
70543;SDS011;58097;48.364;-1.224;2023-01-19T07:39:45;5.65;;;2.35;;
70543;SDS011;58097;48.364;-1.224;2023-01-19T07:42:10;3.70;;;1.50;;
70543;SDS011;58097;48.364;-1.224;2023-01-19T07:44:36;2.78;;;1.35;;
70543;SDS011;58097;48.364;-1.224;2023-01-19T07:47:01;9.82;;;1.40;;
70543;SDS011;58097;48.364;-1.224;2023-01-19T07:49:27;3.28;;;1.73;;
70543;SDS011;58097;48.364;-1.224;2023-01-19T07:51:53;7.93;;;2.10;;
70543;SDS011;58097;48.364;-1.224;2023-01-19T07:54:20;6.03;;;2.15;;
70543;SDS011;58097;48.364;-1.224;2023-01-19T07:56:46;2.80;;;2.05;;
70543;SDS011;58097;48.364;-1.224;2023-01-19T07:59:11;4.97;;;1.95;;
70543;SDS011;58097;48.364;-1.224;2023-01-19T08:01:36;6.85;;;4.20;;
70543;SDS011;58097;48.364;-1.224;2023-01-19T08:04:02;9.48;;;3.28;;
70543;SDS011;58097;48.364;-1.224;2023-01-19T08:06:34;3.08;;;2.42;;
70543;SDS011;58097;48.364;-1.224;2023-01-19T08:09:01;4.80;;;2.30;;
70543;SDS011;58097;48.364;-1.224;2023-01-19T08:11:29;3.65;;;2.25;;
70543;SDS011;58097;48.364;-1.224;2023-01-19T08:13:55;4.70;;;1.83;;
70543;SDS011;58097;48.364;-1.224;2023-01-19T08:16:20;4.75;;;2.25;;
70543;SDS011;58097;48.364;-1.224;2023-01-19T08:18:46;3.30;;;1.92;;
70543;SDS011;58097;48.364;-1.224;2023-01-19T08:21:11;5.68;;;2.40;;
70543;SDS011;58097;48.364;-1.224;2023-01-19T08:23:36;3.67;;;2.05;;
70543;SDS011;58097;48.364;-1.224;2023-01-19T08:26:15;4.78;;;2.63;;
70543;SDS011;58097;48.364;-1.224;2023-01-19T08:28:45;4.57;;;2.75;;
70543;SDS011;58097;48.364;-1.224;2023-01-19T08:31:10;5.70;;;3.05;;
70543;SDS011;58097;48.364;-1.224;2023-01-19T08:33:36;6.18;;;3.50;;
70543;SDS011;58097;48.364;-1.224;2023-01-19T08:36:01;8.02;;;2.95;;
70543;SDS011;58097;48.364;-1.224;2023-01-19T08:38:26;4.68;;;3.05;;
70543;SDS011;58097;48.364;-1.224;2023-01-19T08:40:52;5.57;;;3.25;;
70543;SDS011;58097;48.364;-1.224;2023-01-19T08:43:17;13.50;;;4.32;;
70543;SDS011;58097;48.364;-1.224;2023-01-19T08:45:44;7.00;;;3.42;;
70543;SDS011;58097;48.364;-1.224;2023-01-19T08:48:14;7.93;;;4.77;;
70543;SDS011;58097;48.364;-1.224;2023-01-19T08:50:40;10.40;;;4.32;;
70543;SDS011;58097;48.364;-1.224;2023-01-19T08:53:06;11.38;;;6.35;;
70543;SDS011;58097;48.364;-1.224;2023-01-19T08:55:33;12.23;;;5.82;;
70543;SDS011;58097;48.364;-1.224;2023-01-19T08:58:00;8.68;;;5.47;;
70543;SDS011;58097;48.364;-1.224;2023-01-19T09:00:28;7.03;;;4.35;;
70543;SDS011;58097;48.364;-1.224;2023-01-19T09:02:55;7.20;;;5.30;;
70543;SDS011;58097;48.364;-1.224;2023-01-19T09:05:21;12.43;;;5.72;;
70543;SDS011;58097;48.364;-1.224;2023-01-19T09:07:47;10.85;;;4.95;;
70543;SDS011;58097;48.364;-1.224;2023-01-19T09:10:13;6.00;;;3.30;;
70543;SDS011;58097;48.364;-1.224;2023-01-19T09:12:40;6.63;;;2.97;;
70543;SDS011;58097;48.364;-1.224;2023-01-19T09:15:05;4.47;;;3.05;;
70543;SDS011;58097;48.364;-1.224;2023-01-19T09:17:31;6.95;;;2.75;;
70543;SDS011;58097;48.364;-1.224;2023-01-19T09:19:57;14.55;;;3.58;;
70543;SDS011;58097;48.364;-1.224;2023-01-19T09:22:22;9.00;;;3.45;;
70543;SDS011;58097;48.364;-1.224;2023-01-19T09:24:48;15.52;;;5.32;;
70543;SDS011;58097;48.364;-1.224;2023-01-19T09:27:13;11.02;;;5.63;;
70543;SDS011;58097;48.364;-1.224;2023-01-19T09:29:38;12.30;;;6.90;;
70543;SDS011;58097;48.364;-1.224;2023-01-19T09:32:04;9.02;;;6.05;;
70543;SDS011;58097;48.364;-1.224;2023-01-19T09:34:29;10.98;;;5.53;;
70543;SDS011;58097;48.364;-1.224;2023-01-19T09:36:55;7.95;;;4.60;;
70543;SDS011;58097;48.364;-1.224;2023-01-19T09:39:20;4.38;;;3.40;;
70543;SDS011;58097;48.364;-1.224;2023-01-19T09:41:48;5.30;;;4.15;;
70543;SDS011;58097;48.364;-1.224;2023-01-19T09:44:28;9.77;;;5.45;;
70543;SDS011;58097;48.364;-1.224;2023-01-19T09:46:57;7.40;;;3.90;;
70543;SDS011;58097;48.364;-1.224;2023-01-19T09:51:58;5.18;;;3.97;;
70543;SDS011;58097;48.364;-1.224;2023-01-19T09:54:57;5.43;;;4.28;;
70543;SDS011;58097;48.364;-1.224;2023-01-19T09:57:23;11.43;;;4.30;;
70543;SDS011;58097;48.364;-1.224;2023-01-19T09:59:51;5.95;;;4.20;;
70543;SDS011;58097;48.364;-1.224;2023-01-19T10:05:29;6.65;;;4.85;;
70543;SDS011;58097;48.364;-1.224;2023-01-19T10:10:56;11.35;;;4.85;;
70543;SDS011;58097;48.364;-1.224;2023-01-19T10:13:55;4.93;;;4.00;;
70543;SDS011;58097;48.364;-1.224;2023-01-19T10:19:28;7.18;;;4.57;;
70543;SDS011;58097;48.364;-1.224;2023-01-19T10:21:57;10.55;;;5.18;;
70543;SDS011;58097;48.364;-1.224;2023-01-19T10:24:26;7.40;;;4.22;;
70543;SDS011;58097;48.364;-1.224;2023-01-19T10:26:57;6.72;;;3.90;;
70543;SDS011;58097;48.364;-1.224;2023-01-19T10:29:33;8.05;;;3.35;;
70543;SDS011;58097;48.364;-1.224;2023-01-19T10:34:46;6.38;;;3.55;;
70543;SDS011;58097;48.364;-1.224;2023-01-19T10:39:42;10.55;;;4.15;;
70543;SDS011;58097;48.364;-1.224;2023-01-19T10:42:09;7.97;;;4.25;;
70543;SDS011;58097;48.364;-1.224;2023-01-19T10:44:39;8.88;;;5.18;;
70543;SDS011;58097;48.364;-1.224;2023-01-19T10:47:05;16.73;;;6.65;;
70543;SDS011;58097;48.364;-1.224;2023-01-19T10:49:40;24.90;;;9.75;;
70543;SDS011;58097;48.364;-1.224;2023-01-19T10:52:28;16.10;;;7.13;;
70543;SDS011;58097;48.364;-1.224;2023-01-19T10:54:57;10.30;;;6.78;;
70543;SDS011;58097;48.364;-1.224;2023-01-19T10:57:25;12.32;;;5.82;;
70543;SDS011;58097;48.364;-1.224;2023-01-19T10:59:54;12.85;;;7.43;;
70543;SDS011;58097;48.364;-1.224;2023-01-19T11:04:49;9.20;;;5.78;;
70543;SDS011;58097;48.364;-1.224;2023-01-19T11:12:46;11.32;;;7.13;;
70543;SDS011;58097;48.364;-1.224;2023-01-19T11:15:20;11.18;;;4.80;;
70543;SDS011;58097;48.364;-1.224;2023-01-19T11:17:48;11.48;;;4.82;;
70543;SDS011;58097;48.364;-1.224;2023-01-19T11:20:19;8.52;;;4.43;;
70543;SDS011;58097;48.364;-1.224;2023-01-19T11:22:46;8.90;;;3.65;;
70543;SDS011;58097;48.364;-1.224;2023-01-19T11:25:23;13.52;;;4.60;;
70543;SDS011;58097;48.364;-1.224;2023-01-19T11:27:53;4.65;;;3.55;;
70543;SDS011;58097;48.364;-1.224;2023-01-19T11:30:19;7.07;;;4.20;;
70543;SDS011;58097;48.364;-1.224;2023-01-19T11:32:48;9.35;;;3.58;;
70543;SDS011;58097;48.364;-1.224;2023-01-19T11:35:27;17.77;;;5.80;;
70543;SDS011;58097;48.364;-1.224;2023-01-19T11:40:53;9.25;;;5.28;;
70543;SDS011;58097;48.364;-1.224;2023-01-19T11:43:21;13.30;;;5.00;;
70543;SDS011;58097;48.364;-1.224;2023-01-19T11:45:48;9.48;;;6.10;;
70543;SDS011;58097;48.364;-1.224;2023-01-19T11:51:21;8.90;;;5.63;;
70543;SDS011;58097;48.364;-1.224;2023-01-19T11:53:50;11.50;;;5.07;;
70543;SDS011;58097;48.364;-1.224;2023-01-19T11:56:17;7.72;;;4.57;;
70543;SDS011;58097;48.364;-1.224;2023-01-19T11:58:47;11.60;;;5.20;;
70543;SDS011;58097;48.364;-1.224;2023-01-19T12:01:18;9.77;;;5.15;;
70543;SDS011;58097;48.364;-1.224;2023-01-19T12:03:52;9.05;;;4.55;;
70543;SDS011;58097;48.364;-1.224;2023-01-19T12:06:24;16.73;;;5.32;;
70543;SDS011;58097;48.364;-1.224;2023-01-19T12:12:03;6.65;;;4.47;;
70543;SDS011;58097;48.364;-1.224;2023-01-19T12:14:42;12.45;;;5.57;;
70543;SDS011;58097;48.364;-1.224;2023-01-19T12:17:20;12.68;;;5.28;;
70543;SDS011;58097;48.364;-1.224;2023-01-19T12:22:43;10.63;;;5.70;;
70543;SDS011;58097;48.364;-1.224;2023-01-19T12:25:19;8.38;;;5.93;;
70543;SDS011;58097;48.364;-1.224;2023-01-19T12:27:48;14.27;;;6.15;;
70543;SDS011;58097;48.364;-1.224;2023-01-19T12:30:25;7.00;;;4.40;;
70543;SDS011;58097;48.364;-1.224;2023-01-19T12:33:18;12.55;;;4.63;;
70543;SDS011;58097;48.364;-1.224;2023-01-19T12:36:01;8.60;;;4.38;;
70543;SDS011;58097;48.364;-1.224;2023-01-19T12:43:42;19.27;;;8.57;;
70543;SDS011;58097;48.364;-1.224;2023-01-19T12:46:23;18.13;;;5.10;;
70543;SDS011;58097;48.364;-1.224;2023-01-19T12:48:52;5.75;;;3.45;;
70543;SDS011;58097;48.364;-1.224;2023-01-19T12:51:25;5.90;;;3.50;;
70543;SDS011;58097;48.364;-1.224;2023-01-19T12:53:53;8.35;;;3.83;;
70543;SDS011;58097;48.364;-1.224;2023-01-19T12:56:28;5.97;;;4.30;;
70543;SDS011;58097;48.364;-1.224;2023-01-19T12:58:56;5.28;;;3.88;;
70543;SDS011;58097;48.364;-1.224;2023-01-19T13:01:23;6.90;;;3.85;;
70543;SDS011;58097;48.364;-1.224;2023-01-19T13:14:45;10.13;;;6.97;;
70543;SDS011;58097;48.364;-1.224;2023-01-19T13:17:30;12.13;;;6.63;;
70543;SDS011;58097;48.364;-1.224;2023-01-19T13:20:04;17.98;;;7.28;;
70543;SDS011;58097;48.364;-1.224;2023-01-19T13:25:24;11.02;;;5.78;;
70543;SDS011;58097;48.364;-1.224;2023-01-19T13:27:52;9.07;;;5.68;;
70543;SDS011;58097;48.364;-1.224;2023-01-19T13:30:18;11.35;;;5.65;;
70543;SDS011;58097;48.364;-1.224;2023-01-19T13:32:49;13.40;;;5.85;;
70543;SDS011;58097;48.364;-1.224;2023-01-19T13:35:16;16.30;;;5.78;;
70543;SDS011;58097;48.364;-1.224;2023-01-19T13:37:43;10.93;;;5.30;;
70543;SDS011;58097;48.364;-1.224;2023-01-19T13:42:49;6.28;;;4.85;;
70543;SDS011;58097;48.364;-1.224;2023-01-19T13:45:27;8.40;;;5.45;;
70543;SDS011;58097;48.364;-1.224;2023-01-19T13:47:57;11.00;;;5.00;;
70543;SDS011;58097;48.364;-1.224;2023-01-19T13:52:51;14.85;;;5.15;;
70543;SDS011;58097;48.364;-1.224;2023-01-19T13:55:20;7.88;;;4.70;;
70543;SDS011;58097;48.364;-1.224;2023-01-19T13:57:47;5.18;;;3.78;;
70543;SDS011;58097;48.364;-1.224;2023-01-19T14:00:18;7.55;;;4.72;;
70543;SDS011;58097;48.364;-1.224;2023-01-19T14:05:31;7.45;;;4.47;;
70543;SDS011;58097;48.364;-1.224;2023-01-19T14:10:24;13.48;;;4.55;;
70543;SDS011;58097;48.364;-1.224;2023-01-19T14:13:03;8.35;;;4.50;;
70543;SDS011;58097;48.364;-1.224;2023-01-19T14:15:40;11.90;;;4.97;;
70543;SDS011;58097;48.364;-1.224;2023-01-19T14:29:14;9.10;;;4.22;;
70543;SDS011;58097;48.364;-1.224;2023-01-19T14:31:51;6.15;;;4.60;;
70543;SDS011;58097;48.364;-1.224;2023-01-19T14:34:29;7.97;;;3.72;;
70543;SDS011;58097;48.364;-1.224;2023-01-19T14:37:00;9.18;;;3.65;;
70543;SDS011;58097;48.364;-1.224;2023-01-19T14:39:28;10.65;;;3.63;;
70543;SDS011;58097;48.364;-1.224;2023-01-19T14:41:56;6.57;;;3.90;;
70543;SDS011;58097;48.364;-1.224;2023-01-19T14:46:58;7.55;;;4.90;;
70543;SDS011;58097;48.364;-1.224;2023-01-19T14:49:31;8.77;;;4.90;;
70543;SDS011;58097;48.364;-1.224;2023-01-19T14:52:04;6.93;;;3.67;;
70543;SDS011;58097;48.364;-1.224;2023-01-19T14:54:39;8.55;;;3.70;;
70543;SDS011;58097;48.364;-1.224;2023-01-19T14:57:12;12.85;;;4.07;;
70543;SDS011;58097;48.364;-1.224;2023-01-19T14:59:38;6.03;;;4.35;;
70543;SDS011;58097;48.364;-1.224;2023-01-19T15:02:03;9.98;;;3.75;;
70543;SDS011;58097;48.364;-1.224;2023-01-19T15:04:29;11.27;;;4.60;;
70543;SDS011;58097;48.364;-1.224;2023-01-19T15:06:55;5.43;;;3.80;;
70543;SDS011;58097;48.364;-1.224;2023-01-19T15:09:20;11.68;;;4.10;;
70543;SDS011;58097;48.364;-1.224;2023-01-19T15:11:46;4.20;;;2.67;;
70543;SDS011;58097;48.364;-1.224;2023-01-19T15:14:14;8.73;;;2.97;;
70543;SDS011;58097;48.364;-1.224;2023-01-19T15:16:40;8.43;;;3.60;;
70543;SDS011;58097;48.364;-1.224;2023-01-19T15:19:09;5.57;;;3.28;;
70543;SDS011;58097;48.364;-1.224;2023-01-19T15:21:36;8.88;;;3.65;;
70543;SDS011;58097;48.364;-1.224;2023-01-19T15:24:05;10.90;;;3.08;;
70543;SDS011;58097;48.364;-1.224;2023-01-19T15:26:31;5.63;;;3.03;;
70543;SDS011;58097;48.364;-1.224;2023-01-19T15:28:57;4.45;;;2.90;;
70543;SDS011;58097;48.364;-1.224;2023-01-19T15:31:22;3.03;;;2.65;;
70543;SDS011;58097;48.364;-1.224;2023-01-19T15:33:49;7.55;;;3.60;;
70543;SDS011;58097;48.364;-1.224;2023-01-19T15:36:18;6.10;;;2.83;;
70543;SDS011;58097;48.364;-1.224;2023-01-19T15:38:45;5.78;;;2.92;;
70543;SDS011;58097;48.364;-1.224;2023-01-19T15:41:24;7.00;;;3.20;;
70543;SDS011;58097;48.364;-1.224;2023-01-19T15:43:51;7.82;;;3.10;;
70543;SDS011;58097;48.364;-1.224;2023-01-19T15:46:18;4.10;;;2.90;;
70543;SDS011;58097;48.364;-1.224;2023-01-19T15:48:45;2.83;;;2.55;;
70543;SDS011;58097;48.364;-1.224;2023-01-19T15:51:14;7.18;;;4.15;;
70543;SDS011;58097;48.364;-1.224;2023-01-19T15:53:42;8.00;;;3.42;;
70543;SDS011;58097;48.364;-1.224;2023-01-19T15:56:15;7.60;;;3.25;;
70543;SDS011;58097;48.364;-1.224;2023-01-19T15:58:45;6.15;;;3.35;;
70543;SDS011;58097;48.364;-1.224;2023-01-19T16:01:15;4.85;;;3.58;;
70543;SDS011;58097;48.364;-1.224;2023-01-19T16:03:42;4.68;;;3.25;;
70543;SDS011;58097;48.364;-1.224;2023-01-19T16:06:07;8.32;;;3.90;;
70543;SDS011;58097;48.364;-1.224;2023-01-19T16:08:34;5.75;;;4.20;;
70543;SDS011;58097;48.364;-1.224;2023-01-19T16:11:10;10.90;;;4.05;;
70543;SDS011;58097;48.364;-1.224;2023-01-19T16:13:37;12.55;;;4.13;;
70543;SDS011;58097;48.364;-1.224;2023-01-19T16:16:03;4.80;;;3.25;;
70543;SDS011;58097;48.364;-1.224;2023-01-19T16:18:36;3.88;;;2.70;;
70543;SDS011;58097;48.364;-1.224;2023-01-19T16:21:01;4.88;;;3.35;;
70543;SDS011;58097;48.364;-1.224;2023-01-19T16:23:26;7.40;;;3.38;;
70543;SDS011;58097;48.364;-1.224;2023-01-19T16:25:56;4.10;;;2.90;;